createdAt,value
2019-03-26T00:03:00.884Z,8.82
2019-03-26T00:08:03.742Z,9.09
2019-03-26T00:13:06.423Z,9.02
2019-03-26T00:18:09.038Z,8.82
2019-03-26T00:23:11.876Z,9.20
2019-03-26T00:28:14.467Z,9.16
2019-03-26T00:33:17.084Z,8.63
2019-03-26T00:38:19.690Z,9.18
2019-03-26T00:43:22.272Z,9.07
2019-03-26T00:48:24.896Z,9.09
2019-03-26T00:53:27.737Z,9.06
2019-03-26T00:58:30.370Z,9.17
2019-03-26T01:03:33.033Z,9.14
2019-03-26T01:08:35.581Z,9.09
2019-03-26T01:13:38.472Z,9.10
2019-03-26T01:18:42.565Z,9.11
2019-03-26T01:23:45.162Z,9.23
2019-03-26T01:28:48.922Z,8.91
2019-03-26T01:33:51.596Z,8.94
2019-03-26T01:38:55.946Z,8.96
2019-03-26T01:43:58.604Z,8.84
2019-03-26T01:49:02.710Z,9.03
2019-03-26T01:54:05.401Z,8.58
2019-03-26T01:59:09.437Z,8.85
2019-03-26T02:04:14.959Z,8.83
2019-03-26T02:09:23.701Z,8.76
2019-03-26T02:14:29.187Z,8.94
2019-03-26T02:19:31.721Z,9.00
2019-03-26T02:24:34.472Z,8.75
2019-03-26T02:29:41.804Z,8.53
2019-03-26T02:34:44.562Z,8.26
2019-03-26T02:39:47.213Z,8.38
2019-03-26T02:44:50.401Z,8.23
2019-03-26T02:49:52.937Z,8.04
2019-03-26T02:54:55.596Z,7.83
2019-03-26T02:59:58.370Z,7.72
2019-03-26T03:05:03.518Z,7.58
2019-03-26T03:10:07.827Z,7.58
2019-03-26T03:15:10.950Z,7.24
2019-03-26T03:20:18.584Z,7.21
2019-03-26T03:25:21.326Z,7.31
2019-03-26T03:30:23.892Z,7.15
2019-03-26T03:35:26.823Z,6.98
2019-03-26T03:40:29.435Z,6.90
2019-03-26T03:45:32.356Z,7.03
2019-03-26T03:50:36.360Z,7.03
2019-03-26T03:55:41.475Z,7.03
2019-03-26T04:00:47.064Z,6.89
2019-03-26T04:06:07.703Z,7.03
2019-03-26T04:10:56.220Z,7.22
2019-03-26T04:15:58.922Z,7.02
2019-03-26T04:21:02.911Z,6.93
2019-03-26T04:26:05.618Z,6.90
2019-03-26T04:31:08.170Z,6.81
2019-03-26T04:36:24.729Z,6.97
2019-03-26T04:41:15.275Z,7.01
2019-03-26T04:46:18.165Z,7.04
2019-03-26T04:51:23.486Z,7.05
2019-03-26T04:56:26.081Z,7.20
2019-03-26T05:01:29.016Z,7.16
2019-03-26T05:06:38.224Z,7.22
2019-03-26T05:11:40.382Z,7.40
2019-03-26T05:16:47.606Z,7.44
2019-03-26T05:21:50.157Z,7.22
2019-03-26T05:26:52.994Z,7.12
2019-03-26T05:31:57.452Z,7.11
2019-03-26T05:37:00.087Z,6.99
2019-03-26T05:42:04.553Z,6.94
2019-03-26T05:47:07.109Z,6.98
2019-03-26T05:52:09.676Z,6.99
2019-03-26T05:57:12.245Z,7.11
2019-03-26T06:02:18.131Z,7.11
2019-03-26T06:07:20.959Z,7.23
2019-03-26T06:12:31.205Z,7.46
2019-03-26T06:17:33.767Z,7.86
2019-03-26T06:22:37.705Z,8.12
2019-03-26T06:27:40.224Z,8.42
2019-03-26T06:32:43.015Z,8.54
2019-03-26T06:37:48.104Z,8.60
2019-03-26T06:42:52.820Z,8.74
2019-03-26T06:47:55.429Z,8.88
2019-03-26T06:53:00.758Z,8.53
2019-03-26T06:58:03.300Z,8.98
2019-03-26T07:03:06.176Z,9.17
2019-03-26T07:08:08.751Z,9.23
2019-03-26T07:13:13.730Z,9.25
2019-03-26T07:18:16.293Z,9.72
2019-03-26T07:23:18.926Z,9.73
2019-03-26T07:28:21.825Z,10.11
2019-03-26T07:33:24.728Z,9.80
2019-03-26T07:38:27.278Z,10.15
2019-03-26T07:43:30.218Z,10.89
2019-03-26T07:48:35.655Z,10.84
2019-03-26T07:53:38.699Z,10.51
2019-03-26T07:58:42.356Z,10.78
2019-03-26T08:03:45.100Z,11.21
2019-03-26T08:08:47.670Z,11.48
2019-03-26T08:13:50.214Z,11.17
2019-03-26T08:18:52.792Z,11.35
2019-03-26T08:23:55.524Z,10.91
2019-03-26T08:29:01.182Z,10.29
2019-03-26T08:34:06.238Z,10.77
2019-03-26T08:39:08.887Z,11.09
2019-03-26T08:44:14.875Z,11.26
2019-03-26T08:49:20.224Z,11.43
2019-03-26T08:54:23.324Z,11.47
2019-03-26T08:59:25.885Z,10.83
2019-03-26T09:04:28.626Z,11.04
2019-03-26T09:09:31.218Z,11.28
2019-03-26T09:14:33.886Z,11.80
2019-03-26T09:19:38.135Z,11.80
2019-03-26T09:24:41.050Z,11.52
2019-03-26T09:29:43.708Z,11.44
2019-03-26T09:34:46.687Z,11.19
2019-03-26T09:39:51.089Z,12.72
2019-03-26T09:44:56.482Z,12.72
2019-03-26T09:49:58.412Z,12.16
2019-03-26T09:55:01.249Z,11.53
2019-03-26T10:00:04.794Z,12.54
2019-03-26T10:05:07.971Z,12.69
2019-03-26T10:10:11.261Z,12.63
2019-03-26T10:15:13.824Z,12.75
2019-03-26T10:20:16.691Z,13.11
2019-03-26T10:25:19.385Z,12.50
2019-03-26T10:30:31.920Z,12.50
2019-03-26T10:35:36.721Z,12.11
2019-03-26T10:40:39.423Z,12.07
2019-03-26T10:45:42.269Z,11.92
2019-03-26T10:50:48.377Z,12.08
2019-03-26T10:55:51.269Z,12.08
2019-03-26T11:00:55.655Z,12.25
2019-03-26T11:05:59.591Z,12.23
2019-03-26T11:11:02.583Z,12.30
2019-03-26T11:16:05.137Z,12.31
2019-03-26T11:21:10.501Z,13.15
2019-03-26T11:26:13.482Z,13.20
2019-03-26T11:31:16.077Z,13.21
2019-03-26T11:36:19.120Z,13.10
2019-03-26T11:41:24.650Z,12.46
2019-03-26T11:46:27.531Z,13.19
2019-03-26T11:51:30.073Z,13.19
2019-03-26T11:56:33.275Z,13.58
2019-03-26T12:01:42.246Z,13.15
2019-03-26T12:06:44.995Z,13.45
2019-03-26T12:11:47.654Z,13.71
2019-03-26T12:16:54.872Z,13.76
2019-03-26T12:21:57.436Z,14.17
2019-03-26T12:27:00.214Z,14.00
2019-03-26T12:32:02.951Z,13.11
2019-03-26T12:37:05.587Z,14.31
2019-03-26T12:42:08.584Z,14.10
2019-03-26T12:47:13.307Z,13.90
2019-03-26T12:52:17.011Z,12.69
2019-03-26T12:57:19.902Z,13.27
2019-03-26T13:02:24.751Z,13.49
2019-03-26T13:07:28.208Z,13.87
2019-03-26T13:12:31.122Z,14.10
2019-03-26T13:17:33.735Z,13.82
2019-03-26T13:22:38.578Z,14.32
2019-03-26T13:27:41.301Z,14.32
2019-03-26T13:32:44.713Z,14.14
2019-03-26T13:37:50.237Z,13.95
2019-03-26T13:42:53.065Z,13.63
2019-03-26T13:47:55.641Z,14.03
2019-03-26T13:52:58.309Z,14.33
2019-03-26T13:58:00.852Z,14.13
2019-03-26T14:03:04.053Z,14.18
2019-03-26T14:08:06.609Z,13.79
2019-03-26T14:13:09.313Z,13.69
2019-03-26T14:18:11.949Z,13.67
2019-03-26T14:23:14.763Z,13.89
2019-03-26T14:28:21.711Z,13.89
2019-03-26T14:33:24.539Z,13.81
2019-03-26T14:38:30.187Z,13.89
2019-03-26T14:43:34.884Z,13.33
2019-03-26T14:48:38.677Z,13.33
2019-03-26T14:53:43.241Z,13.27
2019-03-26T14:58:48.262Z,13.11
2019-03-26T15:03:50.920Z,13.26
2019-03-26T15:08:56.214Z,13.33
2019-03-26T15:14:04.452Z,13.24
2019-03-26T15:19:07.039Z,12.98
2019-03-26T15:24:11.979Z,13.15
2019-03-26T15:29:17.679Z,12.78
2019-03-26T15:34:20.545Z,13.13
2019-03-26T15:39:23.111Z,12.49
2019-03-26T15:44:28.444Z,12.76
2019-03-26T15:49:31.156Z,12.58
2019-03-26T15:54:34.091Z,12.96
2019-03-26T15:59:38.459Z,12.79
2019-03-26T16:04:42.321Z,12.77
2019-03-26T16:09:44.888Z,12.18
2019-03-26T16:14:48.563Z,12.39
2019-03-26T16:19:51.618Z,12.33
2019-03-26T16:24:56.436Z,12.48
2019-03-26T16:29:59.069Z,12.63
2019-03-26T16:35:04.575Z,12.64
2019-03-26T16:40:09.076Z,12.81
2019-03-26T16:45:14.115Z,12.49
2019-03-26T16:50:16.688Z,12.43
2019-03-26T16:55:20.308Z,11.90
2019-03-26T17:00:32.773Z,11.90
2019-03-26T17:05:35.630Z,12.01
2019-03-26T17:10:38.306Z,11.50
2019-03-26T17:15:43.973Z,11.59
2019-03-26T17:20:46.536Z,11.37
2019-03-26T17:25:51.798Z,11.37
2019-03-26T17:30:56.824Z,11.25
2019-03-26T17:35:59.694Z,11.37
2019-03-26T17:41:02.656Z,11.18
2019-03-26T17:46:05.475Z,11.11
2019-03-26T17:51:08.146Z,10.92
2019-03-26T17:56:12.817Z,11.02
2019-03-26T18:01:15.957Z,11.04
2019-03-26T18:06:24.929Z,10.65
2019-03-26T18:11:36.580Z,10.70
2019-03-26T18:16:39.356Z,10.47
2019-03-26T18:21:51.326Z,10.32
2019-03-26T18:26:46.830Z,10.54
2019-03-26T18:31:49.365Z,10.23
2019-03-26T18:36:54.500Z,10.30
2019-03-26T18:41:57.157Z,10.04
2019-03-26T18:47:00.231Z,10.23
2019-03-26T18:52:02.854Z,10.13
2019-03-26T18:57:08.389Z,10.28
2019-03-26T19:02:12.684Z,10.23
2019-03-26T19:07:17.101Z,9.92
2019-03-26T19:12:19.732Z,10.31
2019-03-26T19:17:27.342Z,10.25
2019-03-26T19:22:30.304Z,10.15
2019-03-26T19:27:32.838Z,10.35
2019-03-26T19:32:35.723Z,10.12
2019-03-26T19:37:38.283Z,10.00
2019-03-26T19:42:43.152Z,10.25
2019-03-26T19:47:45.691Z,9.94
2019-03-26T19:52:48.495Z,10.02
2019-03-26T19:57:51.306Z,10.20
2019-03-26T20:02:57.036Z,10.30
2019-03-26T20:07:59.613Z,10.09
2019-03-26T20:13:02.156Z,9.94
2019-03-26T20:18:04.732Z,9.84
2019-03-26T20:23:07.290Z,10.15
2019-03-26T20:28:12.405Z,10.10
2019-03-26T20:33:15.299Z,9.81
2019-03-26T20:38:17.881Z,10.16
2019-03-26T20:43:36.520Z,10.10
2019-03-26T20:48:27.921Z,10.04
2019-03-26T20:53:30.691Z,10.06
2019-03-26T20:58:33.976Z,10.11
2019-03-26T21:03:38.879Z,10.06
2019-03-26T21:08:43.822Z,10.05
2019-03-26T21:13:51.013Z,9.96
2019-03-26T21:18:51.043Z,10.01
2019-03-26T21:23:58.696Z,10.22
2019-03-26T21:29:01.442Z,10.00
2019-03-26T21:34:06.880Z,10.00
2019-03-26T21:39:09.644Z,10.03
2019-03-26T21:44:21.346Z,10.04
2019-03-26T21:49:24.051Z,9.75
2019-03-26T21:54:26.821Z,10.02
2019-03-26T21:59:29.499Z,10.05
2019-03-26T22:04:32.228Z,9.75
2019-03-26T22:09:37.338Z,9.63
2019-03-26T22:14:40.155Z,9.72
2019-03-26T22:19:42.785Z,9.69
2019-03-26T22:24:45.635Z,9.69
2019-03-26T22:29:48.214Z,9.81
2019-03-26T22:34:50.847Z,9.68
2019-03-26T22:39:53.399Z,9.69
2019-03-26T22:44:56.038Z,9.65
2019-03-26T22:49:58.643Z,9.64
2019-03-26T22:55:01.246Z,9.76
2019-03-26T23:00:11.256Z,9.57
2019-03-26T23:05:15.065Z,9.66
2019-03-26T23:10:21.298Z,9.65
2019-03-26T23:15:26.141Z,9.75
2019-03-26T23:20:28.719Z,9.70
2019-03-26T23:25:33.162Z,9.57
2019-03-26T23:30:35.928Z,9.84
2019-03-26T23:35:39.681Z,9.82
2019-03-26T23:40:47.247Z,9.73
2019-03-26T23:45:52.843Z,9.61
2019-03-26T23:50:55.601Z,9.60
2019-03-26T23:55:58.542Z,9.56
